Strona główna
METAR-TAF:

METAR-TAF

Lotnisko :

Port lotniczy Bobo-Dioulasso

Bobo-Dioulasso, Burkina Faso

Szerokość geograficzna: 11-10N, Długość geograficzna: 004-19W, wysokość: 460 m

Aktualna obserwacja pogody

Raport powstał 1 godzina i 0 minut temu, godzina 19:00 UTC
Wiatr 6 kt od południowo-południowy zachód
Temperatura 25°C
Wilgotność 83%
Ciśnienie 1011 hPa
Widzialność 10 km lub więcej
Mało chmury na wysokości 1600 ft

METAR: DFOO 201900Z 20006KT 9999 FEW016 25/22 Q1011

czas: 20:00 (20:00 UTC)

Prognoza

Raport powstał 3 godziny i 0 minut temu, godzina 17:00 UTC
Prognoza ważna od 20 godzina 18 UTC do 21 godzina 18 UTC
Wiatr 8 kt od południowy zachód
Widzialność 10 km lub więcej
Rozproszone chmury na wysokości 1600 ft
Przejściowo
od 20 godzina 18 UTC do 20 godzina 24 UTC
Widzialność: 4000 m
Rozproszone chmury na wysokości 1600 ft
Mało chmury na wysokości 3300 ft, Cumulonimbus.
burza, deszcz,

TAF: DFOO 201700Z 2018/2118 22008KT 9999 SCT016 TEMPO 2018/2024 4000 TSRA SCT016 FEW033CB

Obserwacja i prognoza pogody dla ponad 4000 lotnisk (raport METAR i TAF).

Dostępne stacje oznaczono żółtymi i czerwonymi punktami na mapie.

Najedź kursorem aby zobaczyć nazwę stacji.

Kliknij aby zobaczyć obserwacje i prognozy pogody.

Aby zmienić mapę: kliknij na zielony przycisk z czarnym krzyżykiem, aby powiększyć; na zielony przycisk z myślnikiem, aby pomniejszyć; na zielone strzałki, aby przejść do map sąsiednich.


METAR-TAF: